OOCL Nagoya — VRFX8 — position and weather

sailwx.info

Track history (hours):
 
Tides and Currents Weather Stations Pressure Air Temp Water Temp Dewpoint Dewpoint Depression Visibility Wind Speed Wind Dir Waves Ship Positions

OOCL Nagoya

Last reported at 2015-Jan-29 07:15 UTC. Time now 2015-Jan-29 08:21 UTC.
Position N 22°08' E 114°15'.

Length 261 m; draft 9.1 m.

Type: Cargo ship. MMSI: 477627900.

Date/timePositionNaut miles runAvg speedWind from/ knotsBaromVisibWave heightAir tempDewpointWater temp
2015-Jan-29 07:15N 22°08' E 114°15'1212.6
2015-Jan-29 06:19N 22°17' E 114°06'4 5.0
2015-Jan-29 05:27N 22°21' E 114°07'0 0.0
2015-Jan-29 02:24N 22°21' E 114°07'0 0.0
2015-Jan-29 00:09N 22°21' E 114°07'0 0.1
2015-Jan-28 23:21N 22°21' E 114°07'0 0.0
2015-Jan-28 22:24N 22°21' E 114°07'1 0.1
2015-Jan-28 13:32N 22°20' E 114°07'1210.1
2015-Jan-28 12:22N 22°22' E 113°54'6 7.1
2015-Jan-28 11:33N 22°28' E 113°54'0 0.1
2015-Jan-28 10:32N 22°28' E 113°54'0 0.1
2015-Jan-28 09:29N 22°28' E 113°54'0 0.1
2015-Jan-28 08:32N 22°28' E 113°54'0 0.0
2015-Jan-28 07:20N 22°28' E 113°54'0 0.0
2015-Jan-28 06:32N 22°28' E 113°54'0 0.0
2015-Jan-28 05:29N 22°28' E 113°54'0 0.0
2015-Jan-28 04:26N 22°28' E 113°54'0 0.0
2015-Jan-28 03:32N 22°28' E 113°54'0 0.0
2015-Jan-28 02:26N 22°28' E 113°54'0 0.0
2015-Jan-28 01:32N 22°28' E 113°54'0 0.0
2015-Jan-28 00:29N 22°28' E 113°54'0 0.0
2015-Jan-27 23:33N 22°28' E 113°54'5 4.8
2015-Jan-27 22:33N 22°23' E 113°54'10 8.9
2015-Jan-27 21:27N 22°21' E 114°05'0 0.5
2015-Jan-27 20:33N 22°20' E 114°04'0 0.0
2015-Jan-27 19:33N 22°20' E 114°04'0 0.0
2015-Jan-27 18:33N 22°20' E 114°04'0 0.0
2015-Jan-27 17:33N 22°20' E 114°04'2 1.5
2015-Jan-27 16:33N 22°19' E 114°05'1210.1
2015-Jan-27 15:25N 22°10' E 114°13'1011.7
2015-Jan-27 14:33N 22°06' E 114°23'1110.3
2015-Jan-27 13:32N 21°56' E 114°22'21911.2
2015-Jan-26 18:00N 18°24' E 113°24'13811.5 050 / 21008.010.8 21.018.0
2015-Jan-26 06:00N 16°12' E 112°42'33113.8 010 / 21008.010.8 1.028.022.0
2015-Jan-25 06:00N 10°54' E 111°06'10517.5 010 / 21008.010.8 1.028.019.0
2015-Jan-25 00:00N 09°12' E 110°42'31713.2 030 / 111008.010.8 1.024.021.0
2015-Jan-24 00:00N 04°12' E 109°00'   1008.010.8 1.022.020.0
Track history (hours):
 
Tides and Currents Weather Stations Pressure Air Temp Water Temp Dewpoint Dewpoint Depression Visibility Wind Speed Wind Dir Waves Ship Positions

OOCL Nagoya

Last reported at 2015-Jan-29 07:15 UTC. Time now 2015-Jan-29 08:21 UTC.
Position N 22°08' E 114°15'.

Length 261 m; draft 9.1 m.

Type: Cargo ship. MMSI: 477627900.

Date/timePositionNaut miles runAvg speedWind from/ knotsBaromVisibWave heightAir tempDewpointWater temp
2015-Jan-29 07:15N 22°08' E 114°15'1212.6
2015-Jan-29 06:19N 22°17' E 114°06'4 5.0
2015-Jan-29 05:27N 22°21' E 114°07'0 0.0
2015-Jan-29 02:24N 22°21' E 114°07'0 0.0
2015-Jan-29 00:09N 22°21' E 114°07'0 0.1
2015-Jan-28 23:21N 22°21' E 114°07'0 0.0
2015-Jan-28 22:24N 22°21' E 114°07'1 0.1
2015-Jan-28 13:32N 22°20' E 114°07'1210.1
2015-Jan-28 12:22N 22°22' E 113°54'6 7.1
2015-Jan-28 11:33N 22°28' E 113°54'0 0.1
2015-Jan-28 10:32N 22°28' E 113°54'0 0.1
2015-Jan-28 09:29N 22°28' E 113°54'0 0.1
2015-Jan-28 08:32N 22°28' E 113°54'0 0.0
2015-Jan-28 07:20N 22°28' E 113°54'0 0.0
2015-Jan-28 06:32N 22°28' E 113°54'0 0.0
2015-Jan-28 05:29N 22°28' E 113°54'0 0.0
2015-Jan-28 04:26N 22°28' E 113°54'0 0.0
2015-Jan-28 03:32N 22°28' E 113°54'0 0.0
2015-Jan-28 02:26N 22°28' E 113°54'0 0.0
2015-Jan-28 01:32N 22°28' E 113°54'0 0.0
2015-Jan-28 00:29N 22°28' E 113°54'0 0.0
2015-Jan-27 23:33N 22°28' E 113°54'5 4.8
2015-Jan-27 22:33N 22°23' E 113°54'10 8.9
2015-Jan-27 21:27N 22°21' E 114°05'0 0.5
2015-Jan-27 20:33N 22°20' E 114°04'0 0.0
2015-Jan-27 19:33N 22°20' E 114°04'0 0.0
2015-Jan-27 18:33N 22°20' E 114°04'0 0.0
2015-Jan-27 17:33N 22°20' E 114°04'2 1.5
2015-Jan-27 16:33N 22°19' E 114°05'1210.1
2015-Jan-27 15:25N 22°10' E 114°13'1011.7
2015-Jan-27 14:33N 22°06' E 114°23'1110.3
2015-Jan-27 13:32N 21°56' E 114°22'21911.2
2015-Jan-26 18:00N 18°24' E 113°24'13811.5 050 / 21008.010.8 21.018.0
2015-Jan-26 06:00N 16°12' E 112°42'33113.8 010 / 21008.010.8 1.028.022.0
2015-Jan-25 06:00N 10°54' E 111°06'10517.5 010 / 21008.010.8 1.028.019.0
2015-Jan-25 00:00N 09°12' E 110°42'31713.2 030 / 111008.010.8 1.024.021.0
2015-Jan-24 00:00N 04°12' E 109°00'   1008.010.8 1.022.020.0

Dump ship's entire track history